EFW461C EGKK-LPPR
Flight info
| Callsign | EFW461C |
|---|---|
| Flight time | 2h 1m |
| Altitude | 33000 |
| Route | NOVMA1X NOVMA L620 SAM M195 LORKU DCT EBOMO DCT COQUE DCT KORUL DCT ELTEP/N0402F230 T328 ASPOR ASPOR6C |
| Aircraft | A321/M-SDE3FGIJ1KRWXY/SB1 |
Departure
| Time | 2026-04-17 09:34 |
|---|---|
| Airport | London Gatwick Airport (EGKK) |
Arrival
| Time | 2026-04-17 11:36 |
|---|---|
| Airport | Francisco de Sá Carneiro Airport (LPPR) |
| Time | Latitude | Longitude | Altitude | Speed | Heading |
|---|---|---|---|---|---|
| 2026-04-17 09:09 | 51.15484 | -0.16962 | 204 ft | 0 kts | 348° |
| 2026-04-17 09:26 | 51.15467 | -0.16957 | 209 ft | 4 kts | 348° |
| 2026-04-17 09:26 | 51.15443 | -0.16948 | 207 ft | 4 kts | 323° |
| 2026-04-17 09:27 | 51.15435 | -0.16921 | 212 ft | 2 kts | 258° |
| 2026-04-17 09:27 | 51.15440 | -0.16888 | 213 ft | 2 kts | 257° |
| 2026-04-17 09:27 | 51.15440 | -0.16885 | 213 ft | 0 kts | 257° |
| 2026-04-17 09:29 | 51.15440 | -0.16887 | 213 ft | 1 kts | 257° |
| 2026-04-17 09:30 | 51.15438 | -0.16900 | 214 ft | 2 kts | 257° |
| 2026-04-17 09:30 | 51.15435 | -0.16925 | 216 ft | 4 kts | 257° |
| 2026-04-17 09:30 | 51.15425 | -0.16996 | 204 ft | 7 kts | 258° |
| 2026-04-17 09:30 | 51.15413 | -0.17081 | 207 ft | 8 kts | 258° |
| 2026-04-17 09:31 | 51.15393 | -0.17172 | 207 ft | 9 kts | 249° |
| 2026-04-17 09:31 | 51.15372 | -0.17273 | 211 ft | 10 kts | 253° |
| 2026-04-17 09:31 | 51.15333 | -0.17358 | 207 ft | 10 kts | 194° |
| 2026-04-17 09:31 | 51.15265 | -0.17334 | 214 ft | 10 kts | 157° |
| 2026-04-17 09:32 | 51.15204 | -0.17266 | 208 ft | 11 kts | 138° |
| 2026-04-17 09:32 | 51.15187 | -0.17154 | 210 ft | 11 kts | 83° |
| 2026-04-17 09:32 | 51.15203 | -0.17026 | 210 ft | 12 kts | 78° |
| 2026-04-17 09:32 | 51.15221 | -0.16893 | 208 ft | 12 kts | 79° |
| 2026-04-17 09:33 | 51.15183 | -0.16794 | 207 ft | 12 kts | 162° |
| 2026-04-17 09:33 | 51.15120 | -0.16840 | 206 ft | 8 kts | 242° |
| 2026-04-17 09:33 | 51.15113 | -0.16869 | 209 ft | 0 kts | 254° |
| 2026-04-17 09:33 | 51.15113 | -0.16873 | 209 ft | 0 kts | 254° |
| 2026-04-17 09:34 | 51.15101 | -0.16958 | 214 ft | 32 kts | 257° |
| 2026-04-17 09:34 | 51.14999 | -0.17697 | 210 ft | 102 kts | 257° |
| 2026-04-17 09:34 | 51.14803 | -0.19118 | 212 ft | 159 kts | 258° |
| 2026-04-17 09:34 | 51.14570 | -0.20888 | 825 ft | 158 kts | 254° |
| 2026-04-17 09:35 | 51.14340 | -0.22585 | 1618 ft | 157 kts | 254° |
| 2026-04-17 09:35 | 51.14091 | -0.24363 | 1937 ft | 175 kts | 255° |
| 2026-04-17 09:35 | 51.13808 | -0.26377 | 2183 ft | 197 kts | 255° |
| 2026-04-17 09:35 | 51.13490 | -0.28621 | 2331 ft | 219 kts | 255° |
| 2026-04-17 09:36 | 51.13141 | -0.31093 | 2621 ft | 238 kts | 256° |
| 2026-04-17 09:36 | 51.12777 | -0.33701 | 3267 ft | 243 kts | 256° |
| 2026-04-17 09:36 | 51.12411 | -0.36342 | 3999 ft | 245 kts | 255° |
| 2026-04-17 09:36 | 51.12047 | -0.38968 | 4711 ft | 247 kts | 255° |
| 2026-04-17 09:37 | 51.11676 | -0.41651 | 5389 ft | 250 kts | 256° |
| 2026-04-17 09:37 | 51.11097 | -0.44264 | 6039 ft | 253 kts | 243° |
| 2026-04-17 09:37 | 51.10312 | -0.46789 | 6682 ft | 256 kts | 243° |
| 2026-04-17 09:37 | 51.09514 | -0.49344 | 7289 ft | 259 kts | 243° |
| 2026-04-17 09:38 | 51.08703 | -0.51933 | 7929 ft | 261 kts | 243° |
| 2026-04-17 09:38 | 51.07888 | -0.54531 | 8587 ft | 263 kts | 243° |
| 2026-04-17 09:38 | 51.07068 | -0.57146 | 9238 ft | 265 kts | 243° |
| 2026-04-17 09:38 | 51.06242 | -0.59783 | 9884 ft | 267 kts | 243° |
| 2026-04-17 09:39 | 51.05485 | -0.62306 | 10442 ft | 269 kts | 249° |
| 2026-04-17 09:39 | 51.05024 | -0.65200 | 11009 ft | 272 kts | 257° |
| 2026-04-17 09:39 | 51.04634 | -0.68158 | 11599 ft | 274 kts | 256° |
| 2026-04-17 09:39 | 51.04237 | -0.71131 | 12191 ft | 275 kts | 256° |
| 2026-04-17 09:40 | 51.03836 | -0.74112 | 12777 ft | 277 kts | 256° |
| 2026-04-17 09:40 | 51.03430 | -0.77127 | 13183 ft | 286 kts | 256° |
| 2026-04-17 09:40 | 51.02996 | -0.80315 | 13315 ft | 303 kts | 255° |
| 2026-04-17 09:40 | 51.02535 | -0.83673 | 13457 ft | 318 kts | 255° |
| 2026-04-17 09:41 | 51.02055 | -0.87185 | 13592 ft | 333 kts | 256° |
| 2026-04-17 09:41 | 51.01556 | -0.90853 | 13843 ft | 344 kts | 256° |
| 2026-04-17 09:41 | 51.01048 | -0.94599 | 14286 ft | 348 kts | 256° |
| 2026-04-17 09:41 | 51.00535 | -0.98369 | 14750 ft | 351 kts | 256° |
| 2026-04-17 09:42 | 51.00023 | -1.02123 | 15225 ft | 353 kts | 256° |
| 2026-04-17 09:42 | 50.99498 | -1.05949 | 15702 ft | 355 kts | 255° |
| 2026-04-17 09:42 | 50.98969 | -1.09798 | 16176 ft | 358 kts | 255° |
| 2026-04-17 09:42 | 50.98434 | -1.13666 | 16661 ft | 360 kts | 255° |
| 2026-04-17 09:43 | 50.97894 | -1.17555 | 17129 ft | 362 kts | 255° |
| 2026-04-17 09:43 | 50.97347 | -1.21477 | 17587 ft | 364 kts | 255° |
| 2026-04-17 09:43 | 50.96796 | -1.25419 | 18038 ft | 366 kts | 255° |
| 2026-04-17 09:43 | 50.96154 | -1.29288 | 18445 ft | 367 kts | 248° |
| 2026-04-17 09:44 | 50.95043 | -1.32928 | 18808 ft | 367 kts | 237° |
| 2026-04-17 09:44 | 50.93470 | -1.36120 | 19181 ft | 369 kts | 226° |
| 2026-04-17 09:44 | 50.91491 | -1.38738 | 19557 ft | 371 kts | 215° |
| 2026-04-17 09:44 | 50.89326 | -1.40981 | 19942 ft | 373 kts | 214° |
| 2026-04-17 09:45 | 50.87151 | -1.43231 | 20368 ft | 373 kts | 214° |
| 2026-04-17 09:45 | 50.84975 | -1.45485 | 20749 ft | 374 kts | 215° |
| 2026-04-17 09:45 | 50.82788 | -1.47754 | 21114 ft | 376 kts | 215° |
| 2026-04-17 09:45 | 50.80593 | -1.50032 | 21479 ft | 378 kts | 215° |
| 2026-04-17 09:46 | 50.78418 | -1.52287 | 21839 ft | 379 kts | 215° |
| 2026-04-17 09:46 | 50.76201 | -1.54584 | 22186 ft | 381 kts | 215° |
| 2026-04-17 09:46 | 50.73978 | -1.56885 | 22548 ft | 383 kts | 215° |
| 2026-04-17 09:46 | 50.71744 | -1.59193 | 22898 ft | 384 kts | 215° |
| 2026-04-17 09:47 | 50.69495 | -1.61515 | 23249 ft | 386 kts | 215° |
| 2026-04-17 09:47 | 50.67250 | -1.63832 | 23589 ft | 388 kts | 215° |
| 2026-04-17 09:47 | 50.64983 | -1.66166 | 23904 ft | 389 kts | 215° |
| 2026-04-17 09:47 | 50.63480 | -1.67710 | 24076 ft | 390 kts | 215° |
| 2026-04-17 09:48 | 50.61192 | -1.70060 | 24343 ft | 393 kts | 215° |
| 2026-04-17 09:48 | 50.58144 | -1.73183 | 24700 ft | 395 kts | 215° |
| 2026-04-17 09:48 | 50.56612 | -1.74748 | 24884 ft | 396 kts | 215° |
| 2026-04-17 09:48 | 50.54297 | -1.77113 | 25163 ft | 398 kts | 215° |
| 2026-04-17 09:49 | 50.51967 | -1.79488 | 25437 ft | 399 kts | 215° |
| 2026-04-17 09:49 | 50.49630 | -1.81871 | 25727 ft | 400 kts | 215° |
| 2026-04-17 09:49 | 50.47288 | -1.84260 | 26000 ft | 402 kts | 215° |
| 2026-04-17 09:49 | 50.44941 | -1.86654 | 26297 ft | 403 kts | 215° |
| 2026-04-17 09:50 | 50.42583 | -1.89055 | 26618 ft | 403 kts | 215° |
| 2026-04-17 09:50 | 50.40235 | -1.91440 | 26893 ft | 404 kts | 215° |
| 2026-04-17 09:50 | 50.37894 | -1.93813 | 27130 ft | 406 kts | 215° |
| 2026-04-17 09:50 | 50.35519 | -1.96221 | 27364 ft | 408 kts | 215° |
| 2026-04-17 09:51 | 50.33133 | -1.98639 | 27601 ft | 409 kts | 215° |
| 2026-04-17 09:51 | 50.30730 | -2.01066 | 27859 ft | 411 kts | 215° |
| 2026-04-17 09:51 | 50.28318 | -2.03497 | 28084 ft | 412 kts | 215° |
| 2026-04-17 09:51 | 50.25935 | -2.05900 | 28308 ft | 413 kts | 215° |
| 2026-04-17 09:52 | 50.23510 | -2.08338 | 28526 ft | 415 kts | 215° |
| 2026-04-17 09:52 | 50.21069 | -2.10750 | 28732 ft | 416 kts | 214° |
| 2026-04-17 09:52 | 50.18600 | -2.13154 | 28931 ft | 417 kts | 214° |
| 2026-04-17 09:52 | 50.16128 | -2.15543 | 29094 ft | 419 kts | 214° |
| 2026-04-17 09:53 | 50.13651 | -2.17935 | 29326 ft | 419 kts | 214° |
| 2026-04-17 09:53 | 50.11169 | -2.20334 | 29566 ft | 419 kts | 214° |
| 2026-04-17 09:53 | 50.08693 | -2.22729 | 29841 ft | 418 kts | 214° |
| 2026-04-17 09:53 | 50.06223 | -2.25122 | 30111 ft | 417 kts | 214° |
| 2026-04-17 09:54 | 50.03789 | -2.27478 | 30359 ft | 417 kts | 214° |
| 2026-04-17 09:54 | 50.01328 | -2.29862 | 30637 ft | 414 kts | 214° |
| 2026-04-17 09:54 | 49.98883 | -2.32228 | 30937 ft | 412 kts | 214° |
| 2026-04-17 09:54 | 49.96457 | -2.34566 | 31193 ft | 410 kts | 214° |
| 2026-04-17 09:55 | 49.94031 | -2.36898 | 31387 ft | 410 kts | 214° |
| 2026-04-17 09:55 | 49.91601 | -2.39236 | 31551 ft | 411 kts | 214° |
| 2026-04-17 09:55 | 49.89171 | -2.41578 | 31719 ft | 411 kts | 214° |
| 2026-04-17 09:55 | 49.86742 | -2.43922 | 31923 ft | 411 kts | 214° |
| 2026-04-17 09:56 | 49.84314 | -2.46259 | 32135 ft | 411 kts | 214° |
| 2026-04-17 09:56 | 49.81883 | -2.48596 | 32346 ft | 410 kts | 214° |
| 2026-04-17 09:56 | 49.79488 | -2.50892 | 32568 ft | 410 kts | 214° |
| 2026-04-17 09:56 | 49.77065 | -2.53208 | 32761 ft | 409 kts | 214° |
| 2026-04-17 09:57 | 49.74646 | -2.55520 | 32965 ft | 409 kts | 214° |
| 2026-04-17 09:57 | 49.72226 | -2.57834 | 33143 ft | 409 kts | 214° |
| 2026-04-17 09:57 | 49.67397 | -2.62444 | 33193 ft | 407 kts | 214° |
| 2026-04-17 09:58 | 49.62564 | -2.67029 | 33195 ft | 407 kts | 214° |
| 2026-04-17 09:58 | 49.57782 | -2.71561 | 33190 ft | 405 kts | 214° |
| 2026-04-17 09:59 | 49.52995 | -2.76087 | 33202 ft | 403 kts | 213° |
| 2026-04-17 09:59 | 49.48206 | -2.80608 | 33184 ft | 403 kts | 213° |
| 2026-04-17 10:00 | 49.43409 | -2.85128 | 33189 ft | 404 kts | 213° |
| 2026-04-17 10:00 | 49.38605 | -2.89642 | 33195 ft | 405 kts | 213° |
| 2026-04-17 10:01 | 49.33784 | -2.94158 | 33202 ft | 406 kts | 213° |
| 2026-04-17 10:01 | 49.28959 | -2.98669 | 33208 ft | 406 kts | 213° |
| 2026-04-17 10:02 | 49.24169 | -3.03146 | 33184 ft | 406 kts | 213° |
| 2026-04-17 10:02 | 49.19329 | -3.07660 | 33190 ft | 407 kts | 213° |
| 2026-04-17 10:03 | 49.14481 | -3.12174 | 33214 ft | 408 kts | 213° |
| 2026-04-17 10:03 | 49.09633 | -3.16663 | 33220 ft | 407 kts | 213° |
| 2026-04-17 10:04 | 49.04786 | -3.21133 | 33215 ft | 407 kts | 213° |
| 2026-04-17 10:04 | 48.99939 | -3.25598 | 33198 ft | 407 kts | 213° |
| 2026-04-17 10:05 | 48.95081 | -3.30076 | 33201 ft | 408 kts | 213° |
| 2026-04-17 10:05 | 48.90223 | -3.34537 | 33207 ft | 408 kts | 212° |
| 2026-04-17 10:06 | 48.85388 | -3.38958 | 33207 ft | 408 kts | 212° |
| 2026-04-17 10:06 | 48.80523 | -3.43409 | 33208 ft | 408 kts | 212° |
| 2026-04-17 10:07 | 48.75659 | -3.47853 | 33210 ft | 408 kts | 212° |
| 2026-04-17 10:07 | 48.70790 | -3.52283 | 33226 ft | 407 kts | 212° |
| 2026-04-17 10:08 | 48.65927 | -3.56693 | 33223 ft | 406 kts | 212° |
| 2026-04-17 10:08 | 48.61077 | -3.61089 | 33221 ft | 406 kts | 212° |
| 2026-04-17 10:09 | 48.56260 | -3.65447 | 33187 ft | 406 kts | 212° |
| 2026-04-17 10:09 | 48.51418 | -3.69821 | 33186 ft | 406 kts | 212° |
| 2026-04-17 10:10 | 48.46545 | -3.74210 | 33194 ft | 407 kts | 212° |
| 2026-04-17 10:11 | 48.39237 | -3.80747 | 33198 ft | 407 kts | 212° |
| 2026-04-17 10:11 | 48.34361 | -3.85108 | 33186 ft | 408 kts | 212° |
| 2026-04-17 10:12 | 48.29492 | -3.89470 | 33211 ft | 408 kts | 212° |
| 2026-04-17 10:12 | 48.24614 | -3.93810 | 33223 ft | 407 kts | 212° |
| 2026-04-17 10:13 | 48.19736 | -3.98130 | 33228 ft | 407 kts | 212° |
| 2026-04-17 10:13 | 48.14859 | -4.02446 | 33213 ft | 407 kts | 212° |
| 2026-04-17 10:14 | 48.09986 | -4.06761 | 33219 ft | 408 kts | 212° |
| 2026-04-17 10:14 | 48.05134 | -4.11051 | 33230 ft | 408 kts | 212° |
| 2026-04-17 10:15 | 48.00232 | -4.15363 | 33227 ft | 408 kts | 212° |
| 2026-04-17 10:15 | 47.95331 | -4.19669 | 33232 ft | 409 kts | 212° |
| 2026-04-17 10:16 | 47.90425 | -4.23975 | 33227 ft | 409 kts | 211° |
| 2026-04-17 10:16 | 47.85511 | -4.28271 | 33229 ft | 409 kts | 211° |
| 2026-04-17 10:17 | 47.80626 | -4.32554 | 33231 ft | 410 kts | 212° |
| 2026-04-17 10:17 | 47.75780 | -4.37024 | 33234 ft | 410 kts | 213° |
| 2026-04-17 10:18 | 47.70965 | -4.41568 | 33225 ft | 410 kts | 213° |
| 2026-04-17 10:18 | 47.66136 | -4.46067 | 33227 ft | 410 kts | 213° |
| 2026-04-17 10:19 | 47.61286 | -4.50520 | 33232 ft | 410 kts | 213° |
| 2026-04-17 10:19 | 47.56427 | -4.54967 | 33231 ft | 410 kts | 213° |
| 2026-04-17 10:20 | 47.51572 | -4.59427 | 33234 ft | 410 kts | 213° |
| 2026-04-17 10:20 | 47.46722 | -4.63873 | 33216 ft | 410 kts | 213° |
| 2026-04-17 10:21 | 47.41891 | -4.68282 | 33221 ft | 410 kts | 213° |
| 2026-04-17 10:21 | 47.37036 | -4.72711 | 33224 ft | 410 kts | 213° |
| 2026-04-17 10:22 | 47.32174 | -4.77138 | 33226 ft | 410 kts | 213° |
| 2026-04-17 10:22 | 47.27314 | -4.81547 | 33213 ft | 410 kts | 213° |
| 2026-04-17 10:23 | 47.22439 | -4.85948 | 33216 ft | 410 kts | 213° |
| 2026-04-17 10:23 | 47.17603 | -4.90323 | 33218 ft | 410 kts | 213° |
| 2026-04-17 10:24 | 47.12737 | -4.94714 | 33240 ft | 410 kts | 213° |
| 2026-04-17 10:24 | 47.07868 | -4.99090 | 33241 ft | 409 kts | 213° |
| 2026-04-17 10:25 | 47.03013 | -5.03461 | 33227 ft | 409 kts | 213° |
| 2026-04-17 10:25 | 46.98169 | -5.07828 | 33240 ft | 408 kts | 213° |
| 2026-04-17 10:26 | 46.93325 | -5.12187 | 33242 ft | 408 kts | 213° |
| 2026-04-17 10:26 | 46.88512 | -5.16489 | 33236 ft | 408 kts | 213° |
| 2026-04-17 10:27 | 46.83658 | -5.20812 | 33212 ft | 408 kts | 213° |
| 2026-04-17 10:27 | 46.78797 | -5.25141 | 33217 ft | 409 kts | 213° |
| 2026-04-17 10:28 | 46.73941 | -5.29463 | 33238 ft | 409 kts | 213° |
| 2026-04-17 10:28 | 46.69078 | -5.33794 | 33237 ft | 409 kts | 213° |
| 2026-04-17 10:29 | 46.64212 | -5.38106 | 33243 ft | 409 kts | 213° |
| 2026-04-17 10:29 | 46.59373 | -5.42371 | 33251 ft | 409 kts | 213° |
| 2026-04-17 10:30 | 46.54502 | -5.46661 | 33241 ft | 409 kts | 213° |
| 2026-04-17 10:30 | 46.49630 | -5.50961 | 33239 ft | 409 kts | 213° |
| 2026-04-17 10:31 | 46.44767 | -5.55226 | 33240 ft | 408 kts | 213° |
| 2026-04-17 10:31 | 46.39908 | -5.59494 | 33233 ft | 408 kts | 213° |
| 2026-04-17 10:32 | 46.35047 | -5.63745 | 33250 ft | 407 kts | 213° |
| 2026-04-17 10:32 | 46.30222 | -5.67947 | 33246 ft | 407 kts | 213° |
| 2026-04-17 10:33 | 46.25367 | -5.72182 | 33246 ft | 406 kts | 213° |
| 2026-04-17 10:33 | 46.20526 | -5.76395 | 33237 ft | 406 kts | 213° |
| 2026-04-17 10:34 | 46.15680 | -5.80591 | 33241 ft | 405 kts | 213° |
| 2026-04-17 10:34 | 46.10871 | -5.84751 | 33243 ft | 405 kts | 213° |
| 2026-04-17 10:35 | 46.06043 | -5.88924 | 33244 ft | 405 kts | 213° |
| 2026-04-17 10:35 | 46.02025 | -5.92388 | 33244 ft | 404 kts | 213° |
| 2026-04-17 10:36 | 45.97192 | -5.96543 | 33244 ft | 404 kts | 213° |
| 2026-04-17 10:36 | 45.92363 | -6.00694 | 33247 ft | 403 kts | 213° |
| 2026-04-17 10:37 | 45.87548 | -6.04834 | 33246 ft | 403 kts | 213° |
| 2026-04-17 10:37 | 45.82715 | -6.08950 | 33249 ft | 403 kts | 213° |
| 2026-04-17 10:38 | 45.77927 | -6.13029 | 33234 ft | 403 kts | 213° |
| 2026-04-17 10:38 | 45.73111 | -6.17130 | 33245 ft | 402 kts | 213° |
| 2026-04-17 10:39 | 45.68300 | -6.21224 | 33244 ft | 402 kts | 213° |
| 2026-04-17 10:39 | 45.63486 | -6.25324 | 33243 ft | 402 kts | 213° |
| 2026-04-17 10:40 | 45.58674 | -6.29399 | 33232 ft | 401 kts | 213° |
| 2026-04-17 10:40 | 45.53867 | -6.33450 | 33252 ft | 401 kts | 213° |
| 2026-04-17 10:41 | 45.49060 | -6.37501 | 33257 ft | 401 kts | 213° |
| 2026-04-17 10:41 | 45.44288 | -6.41514 | 33257 ft | 401 kts | 213° |
| 2026-04-17 10:42 | 45.39487 | -6.45543 | 33246 ft | 400 kts | 213° |
| 2026-04-17 10:42 | 45.34688 | -6.49570 | 33238 ft | 400 kts | 213° |
| 2026-04-17 10:43 | 45.29888 | -6.53591 | 33245 ft | 400 kts | 213° |
| 2026-04-17 10:43 | 45.25085 | -6.57596 | 33263 ft | 400 kts | 213° |
| 2026-04-17 10:44 | 45.20287 | -6.61591 | 33257 ft | 400 kts | 213° |
| 2026-04-17 10:44 | 45.15498 | -6.65582 | 33234 ft | 399 kts | 213° |
| 2026-04-17 10:45 | 45.10715 | -6.69555 | 33242 ft | 398 kts | 213° |
| 2026-04-17 10:45 | 45.05933 | -6.73514 | 33246 ft | 398 kts | 213° |
| 2026-04-17 10:46 | 45.01179 | -6.77447 | 33248 ft | 398 kts | 213° |
| 2026-04-17 10:46 | 44.96405 | -6.81386 | 33228 ft | 398 kts | 213° |
| 2026-04-17 10:47 | 44.91622 | -6.85323 | 33229 ft | 398 kts | 213° |
| 2026-04-17 10:47 | 44.86829 | -6.89241 | 33251 ft | 398 kts | 213° |
| 2026-04-17 10:48 | 44.81849 | -6.92645 | 33251 ft | 402 kts | 200° |
| 2026-04-17 10:48 | 44.76462 | -6.94810 | 33231 ft | 402 kts | 200° |
| 2026-04-17 10:49 | 44.71068 | -6.96994 | 33230 ft | 402 kts | 200° |
| 2026-04-17 10:49 | 44.65687 | -6.99165 | 33233 ft | 402 kts | 200° |
| 2026-04-17 10:50 | 44.60293 | -7.01330 | 33241 ft | 402 kts | 200° |
| 2026-04-17 10:50 | 44.54945 | -7.03477 | 33240 ft | 402 kts | 200° |
| 2026-04-17 10:51 | 44.49554 | -7.05634 | 33234 ft | 402 kts | 200° |
| 2026-04-17 10:51 | 44.44163 | -7.07784 | 33233 ft | 402 kts | 200° |
| 2026-04-17 10:52 | 44.38775 | -7.09930 | 33215 ft | 402 kts | 200° |
| 2026-04-17 10:52 | 44.33381 | -7.12080 | 33221 ft | 403 kts | 200° |
| 2026-04-17 10:53 | 44.28020 | -7.14211 | 33215 ft | 403 kts | 200° |
| 2026-04-17 10:53 | 44.22620 | -7.16347 | 33223 ft | 403 kts | 200° |
| 2026-04-17 10:54 | 44.17224 | -7.18482 | 33219 ft | 403 kts | 199° |
| 2026-04-17 10:54 | 44.11823 | -7.20610 | 33216 ft | 403 kts | 199° |
| 2026-04-17 10:55 | 44.06427 | -7.22733 | 33226 ft | 403 kts | 199° |
| 2026-04-17 10:55 | 44.01030 | -7.24860 | 33229 ft | 402 kts | 199° |
| 2026-04-17 10:56 | 43.95679 | -7.26972 | 33206 ft | 402 kts | 199° |
| 2026-04-17 10:56 | 43.90288 | -7.29080 | 33209 ft | 403 kts | 199° |
| 2026-04-17 10:57 | 43.84882 | -7.31186 | 33211 ft | 403 kts | 199° |
| 2026-04-17 10:57 | 43.79474 | -7.33297 | 33214 ft | 403 kts | 199° |
| 2026-04-17 10:58 | 43.74059 | -7.35417 | 33200 ft | 404 kts | 199° |
| 2026-04-17 10:58 | 43.68646 | -7.37524 | 33204 ft | 404 kts | 199° |
| 2026-04-17 10:59 | 43.63228 | -7.39624 | 33207 ft | 405 kts | 199° |
| 2026-04-17 10:59 | 43.57801 | -7.41727 | 33191 ft | 405 kts | 199° |
| 2026-04-17 11:00 | 43.52374 | -7.43825 | 33196 ft | 405 kts | 199° |
| 2026-04-17 11:00 | 43.46933 | -7.45929 | 33205 ft | 406 kts | 199° |
| 2026-04-17 11:01 | 43.41488 | -7.48024 | 33203 ft | 406 kts | 199° |
| 2026-04-17 11:01 | 43.36084 | -7.50101 | 33200 ft | 406 kts | 199° |
| 2026-04-17 11:02 | 43.30626 | -7.52198 | 33211 ft | 407 kts | 199° |
| 2026-04-17 11:02 | 43.25163 | -7.54296 | 33212 ft | 407 kts | 199° |
| 2026-04-17 11:03 | 43.19712 | -7.56379 | 33213 ft | 407 kts | 199° |
| 2026-04-17 11:03 | 43.14257 | -7.58459 | 33191 ft | 407 kts | 199° |
| 2026-04-17 11:04 | 43.08782 | -7.60542 | 33207 ft | 408 kts | 198° |
| 2026-04-17 11:04 | 43.03346 | -7.62607 | 33207 ft | 408 kts | 198° |
| 2026-04-17 11:05 | 42.97878 | -7.64688 | 33203 ft | 407 kts | 198° |
| 2026-04-17 11:05 | 42.92408 | -7.66763 | 33193 ft | 408 kts | 198° |
| 2026-04-17 11:06 | 42.86941 | -7.68836 | 33192 ft | 408 kts | 199° |
| 2026-04-17 11:06 | 42.81468 | -7.70906 | 33190 ft | 408 kts | 198° |
| 2026-04-17 11:07 | 42.76000 | -7.72967 | 33184 ft | 408 kts | 198° |
| 2026-04-17 11:07 | 42.70514 | -7.75026 | 33178 ft | 409 kts | 198° |
| 2026-04-17 11:08 | 42.65065 | -7.77080 | 33180 ft | 409 kts | 198° |
| 2026-04-17 11:08 | 42.59565 | -7.79137 | 33051 ft | 411 kts | 198° |
| 2026-04-17 11:08 | 42.56802 | -7.80169 | 32663 ft | 411 kts | 198° |
| 2026-04-17 11:09 | 42.54040 | -7.81204 | 32404 ft | 413 kts | 198° |
| 2026-04-17 11:09 | 42.51261 | -7.82248 | 32147 ft | 415 kts | 198° |
| 2026-04-17 11:09 | 42.48481 | -7.83293 | 31890 ft | 416 kts | 198° |
| 2026-04-17 11:10 | 42.42898 | -7.85388 | 31387 ft | 416 kts | 198° |
| 2026-04-17 11:10 | 42.40097 | -7.86433 | 31135 ft | 416 kts | 198° |
| 2026-04-17 11:10 | 42.37353 | -7.87458 | 30890 ft | 415 kts | 198° |
| 2026-04-17 11:10 | 42.34573 | -7.88495 | 30651 ft | 414 kts | 198° |
| 2026-04-17 11:11 | 42.31803 | -7.89526 | 30397 ft | 412 kts | 198° |
| 2026-04-17 11:11 | 42.29037 | -7.90555 | 30145 ft | 411 kts | 198° |
| 2026-04-17 11:11 | 42.26283 | -7.91581 | 29857 ft | 409 kts | 198° |
| 2026-04-17 11:11 | 42.23543 | -7.92598 | 29563 ft | 408 kts | 198° |
| 2026-04-17 11:12 | 42.20812 | -7.93611 | 29294 ft | 406 kts | 198° |
| 2026-04-17 11:12 | 42.18088 | -7.94620 | 29017 ft | 405 kts | 198° |
| 2026-04-17 11:12 | 42.15382 | -7.95622 | 28741 ft | 403 kts | 198° |
| 2026-04-17 11:12 | 42.12690 | -7.96617 | 28359 ft | 396 kts | 198° |
| 2026-04-17 11:13 | 42.10051 | -7.97592 | 27881 ft | 390 kts | 198° |
| 2026-04-17 11:13 | 42.07490 | -7.98539 | 27417 ft | 384 kts | 198° |
| 2026-04-17 11:13 | 42.04935 | -7.99484 | 26952 ft | 378 kts | 198° |
| 2026-04-17 11:13 | 42.02413 | -8.00417 | 26492 ft | 373 kts | 198° |
| 2026-04-17 11:14 | 41.99923 | -8.01338 | 26048 ft | 368 kts | 198° |
| 2026-04-17 11:14 | 41.97463 | -8.02248 | 25593 ft | 364 kts | 198° |
| 2026-04-17 11:14 | 41.95038 | -8.03142 | 25156 ft | 360 kts | 198° |
| 2026-04-17 11:14 | 41.92628 | -8.04029 | 24728 ft | 356 kts | 198° |
| 2026-04-17 11:15 | 41.90248 | -8.04902 | 24313 ft | 352 kts | 198° |
| 2026-04-17 11:15 | 41.87891 | -8.05766 | 23900 ft | 350 kts | 198° |
| 2026-04-17 11:15 | 41.85550 | -8.06625 | 23464 ft | 347 kts | 198° |
| 2026-04-17 11:15 | 41.83221 | -8.07481 | 23064 ft | 346 kts | 198° |
| 2026-04-17 11:16 | 41.80974 | -8.08566 | 22677 ft | 342 kts | 207° |
| 2026-04-17 11:16 | 41.78888 | -8.10066 | 22260 ft | 339 kts | 211° |
| 2026-04-17 11:16 | 41.76839 | -8.11612 | 21864 ft | 337 kts | 211° |
| 2026-04-17 11:16 | 41.74800 | -8.13146 | 21458 ft | 335 kts | 211° |
| 2026-04-17 11:17 | 41.72768 | -8.14669 | 21055 ft | 333 kts | 211° |
| 2026-04-17 11:17 | 41.70766 | -8.16135 | 20646 ft | 332 kts | 207° |
| 2026-04-17 11:17 | 41.68592 | -8.17275 | 20222 ft | 332 kts | 201° |
| 2026-04-17 11:17 | 41.66432 | -8.18256 | 19826 ft | 331 kts | 201° |
| 2026-04-17 11:18 | 41.64256 | -8.19251 | 19401 ft | 330 kts | 201° |
| 2026-04-17 11:18 | 41.62086 | -8.20244 | 18961 ft | 328 kts | 201° |
| 2026-04-17 11:18 | 41.59927 | -8.21231 | 18537 ft | 327 kts | 201° |
| 2026-04-17 11:18 | 41.57780 | -8.22213 | 18066 ft | 325 kts | 201° |
| 2026-04-17 11:19 | 41.55644 | -8.23188 | 17622 ft | 324 kts | 201° |
| 2026-04-17 11:19 | 41.53518 | -8.24156 | 17170 ft | 322 kts | 201° |
| 2026-04-17 11:19 | 41.51401 | -8.25117 | 16735 ft | 321 kts | 201° |
| 2026-04-17 11:19 | 41.49294 | -8.26078 | 16298 ft | 319 kts | 201° |
| 2026-04-17 11:20 | 41.47203 | -8.27031 | 15852 ft | 318 kts | 201° |
| 2026-04-17 11:20 | 41.45111 | -8.27985 | 15420 ft | 318 kts | 201° |
| 2026-04-17 11:20 | 41.43728 | -8.28615 | 15140 ft | 317 kts | 201° |
| 2026-04-17 11:20 | 41.41645 | -8.29563 | 14699 ft | 315 kts | 201° |
| 2026-04-17 11:21 | 41.39566 | -8.30507 | 14256 ft | 314 kts | 201° |
| 2026-04-17 11:21 | 41.37500 | -8.31446 | 13799 ft | 313 kts | 201° |
| 2026-04-17 11:21 | 41.35440 | -8.32381 | 13342 ft | 312 kts | 201° |
| 2026-04-17 11:21 | 41.33396 | -8.33309 | 12905 ft | 310 kts | 200° |
| 2026-04-17 11:22 | 41.31358 | -8.34233 | 12477 ft | 308 kts | 200° |
| 2026-04-17 11:22 | 41.29361 | -8.35137 | 12059 ft | 306 kts | 200° |
| 2026-04-17 11:22 | 41.27355 | -8.36043 | 11622 ft | 303 kts | 200° |
| 2026-04-17 11:22 | 41.25359 | -8.36943 | 11200 ft | 301 kts | 200° |
| 2026-04-17 11:23 | 41.23382 | -8.37834 | 10795 ft | 299 kts | 200° |
| 2026-04-17 11:23 | 41.21437 | -8.38711 | 10595 ft | 289 kts | 200° |
| 2026-04-17 11:23 | 41.19555 | -8.39561 | 10323 ft | 283 kts | 200° |
| 2026-04-17 11:23 | 41.17705 | -8.40400 | 10109 ft | 279 kts | 200° |
| 2026-04-17 11:24 | 41.15864 | -8.41235 | 9992 ft | 279 kts | 200° |
| 2026-04-17 11:24 | 41.14026 | -8.42065 | 9851 ft | 279 kts | 200° |
| 2026-04-17 11:24 | 41.12192 | -8.42890 | 9637 ft | 277 kts | 200° |
| 2026-04-17 11:24 | 41.10409 | -8.43691 | 9201 ft | 270 kts | 200° |
| 2026-04-17 11:25 | 41.08632 | -8.44406 | 8772 ft | 263 kts | 189° |
| 2026-04-17 11:25 | 41.06822 | -8.44288 | 8346 ft | 260 kts | 172° |
| 2026-04-17 11:25 | 41.05071 | -8.43799 | 7923 ft | 254 kts | 169° |
| 2026-04-17 11:25 | 41.03375 | -8.43284 | 7618 ft | 245 kts | 169° |
| 2026-04-17 11:26 | 41.01729 | -8.42781 | 7358 ft | 241 kts | 169° |
| 2026-04-17 11:26 | 41.00099 | -8.42280 | 7111 ft | 237 kts | 169° |
| 2026-04-17 11:26 | 40.98535 | -8.41796 | 7073 ft | 225 kts | 169° |
| 2026-04-17 11:26 | 40.97065 | -8.41453 | 6995 ft | 203 kts | 184° |
| 2026-04-17 11:27 | 40.95842 | -8.42053 | 6916 ft | 189 kts | 220° |
| 2026-04-17 11:27 | 40.95190 | -8.43529 | 6853 ft | 190 kts | 252° |
| 2026-04-17 11:27 | 40.94943 | -8.45245 | 6705 ft | 188 kts | 258° |
| 2026-04-17 11:27 | 40.94765 | -8.46958 | 6339 ft | 188 kts | 259° |
| 2026-04-17 11:28 | 40.94593 | -8.48676 | 5987 ft | 188 kts | 259° |
| 2026-04-17 11:28 | 40.94432 | -8.50389 | 5819 ft | 188 kts | 263° |
| 2026-04-17 11:28 | 40.94716 | -8.52100 | 5741 ft | 196 kts | 293° |
| 2026-04-17 11:28 | 40.95360 | -8.53698 | 5663 ft | 197 kts | 294° |
| 2026-04-17 11:29 | 40.96009 | -8.55297 | 5606 ft | 197 kts | 295° |
| 2026-04-17 11:29 | 40.96660 | -8.56896 | 5523 ft | 197 kts | 295° |
| 2026-04-17 11:29 | 40.97311 | -8.58494 | 5447 ft | 197 kts | 295° |
| 2026-04-17 11:29 | 40.98135 | -8.59963 | 5368 ft | 201 kts | 311° |
| 2026-04-17 11:30 | 40.99214 | -8.61067 | 5198 ft | 197 kts | 327° |
| 2026-04-17 11:30 | 41.00479 | -8.61751 | 4932 ft | 196 kts | 343° |
| 2026-04-17 11:30 | 41.01807 | -8.62106 | 4665 ft | 194 kts | 347° |
| 2026-04-17 11:30 | 41.03131 | -8.62454 | 4312 ft | 195 kts | 347° |
| 2026-04-17 11:31 | 41.04451 | -8.62805 | 3995 ft | 191 kts | 347° |
| 2026-04-17 11:31 | 41.05742 | -8.63149 | 3726 ft | 186 kts | 347° |
| 2026-04-17 11:31 | 41.06999 | -8.63484 | 3475 ft | 183 kts | 348° |
| 2026-04-17 11:31 | 41.08243 | -8.63810 | 3223 ft | 180 kts | 348° |
| 2026-04-17 11:32 | 41.09449 | -8.64123 | 3016 ft | 171 kts | 349° |
| 2026-04-17 11:32 | 41.10590 | -8.64419 | 2779 ft | 164 kts | 349° |
| 2026-04-17 11:32 | 41.11689 | -8.64704 | 2556 ft | 160 kts | 349° |
| 2026-04-17 11:32 | 41.12756 | -8.64983 | 2354 ft | 157 kts | 349° |
| 2026-04-17 11:33 | 41.13812 | -8.65259 | 2145 ft | 153 kts | 349° |
| 2026-04-17 11:33 | 41.14867 | -8.65534 | 1939 ft | 151 kts | 349° |
| 2026-04-17 11:33 | 41.15879 | -8.65799 | 1740 ft | 149 kts | 348° |
| 2026-04-17 11:33 | 41.16894 | -8.66065 | 1538 ft | 148 kts | 348° |
| 2026-04-17 11:34 | 41.17901 | -8.66329 | 1344 ft | 147 kts | 348° |
| 2026-04-17 11:34 | 41.18893 | -8.66590 | 1151 ft | 145 kts | 348° |
| 2026-04-17 11:34 | 41.19875 | -8.66848 | 959 ft | 143 kts | 347° |
| 2026-04-17 11:34 | 41.20847 | -8.67102 | 774 ft | 142 kts | 348° |
| 2026-04-17 11:35 | 41.21811 | -8.67355 | 593 ft | 141 kts | 348° |
| 2026-04-17 11:35 | 41.22775 | -8.67598 | 402 ft | 141 kts | 349° |
| 2026-04-17 11:35 | 41.23742 | -8.67844 | 236 ft | 140 kts | 347° |
| 2026-04-17 11:35 | 41.24586 | -8.68067 | 216 ft | 106 kts | 348° |
| 2026-04-17 11:36 | 41.25018 | -8.68175 | 186 ft | 34 kts | 351° |
| 2026-04-17 11:36 | 41.25206 | -8.68137 | 182 ft | 20 kts | 18° |
| 2026-04-17 11:36 | 41.25291 | -8.68079 | 179 ft | 10 kts | 60° |
| 2026-04-17 11:36 | 41.25267 | -8.68018 | 182 ft | 7 kts | 155° |
| 2026-04-17 11:37 | 41.25229 | -8.68005 | 195 ft | 4 kts | 168° |
| 2026-04-17 11:37 | 41.25184 | -8.67994 | 186 ft | 10 kts | 169° |
| 2026-04-17 11:37 | 41.25121 | -8.67977 | 193 ft | 8 kts | 168° |
| 2026-04-17 11:37 | 41.25063 | -8.67961 | 191 ft | 12 kts | 168° |
| 2026-04-17 11:38 | 41.24941 | -8.67928 | 198 ft | 23 kts | 168° |
| 2026-04-17 11:38 | 41.24798 | -8.67850 | 207 ft | 21 kts | 154° |
| 2026-04-17 11:38 | 41.24670 | -8.67803 | 211 ft | 18 kts | 168° |
| 2026-04-17 11:38 | 41.24562 | -8.67775 | 220 ft | 15 kts | 169° |
| 2026-04-17 11:39 | 41.24461 | -8.67749 | 222 ft | 16 kts | 169° |
| 2026-04-17 11:39 | 41.24365 | -8.67724 | 227 ft | 13 kts | 169° |
| 2026-04-17 11:39 | 41.24293 | -8.67681 | 232 ft | 12 kts | 138° |
| 2026-04-17 11:39 | 41.24230 | -8.67590 | 237 ft | 13 kts | 146° |
| 2026-04-17 11:40 | 41.24140 | -8.67558 | 238 ft | 15 kts | 169° |
| 2026-04-17 11:40 | 41.24006 | -8.67524 | 238 ft | 21 kts | 169° |
| 2026-04-17 11:40 | 41.23859 | -8.67485 | 239 ft | 22 kts | 169° |
| 2026-04-17 11:40 | 41.23708 | -8.67446 | 238 ft | 22 kts | 169° |
| 2026-04-17 11:41 | 41.23568 | -8.67412 | 238 ft | 18 kts | 170° |
| 2026-04-17 11:41 | 41.23457 | -8.67384 | 239 ft | 13 kts | 169° |
| 2026-04-17 11:41 | 41.23407 | -8.67360 | 240 ft | 2 kts | 108° |
| 2026-04-17 11:41 | 41.23407 | -8.67357 | 240 ft | 0 kts | 100° |
| 2026-04-17 11:42 | 41.23407 | -8.67356 | 240 ft | 0 kts | 100° |
| 2026-04-17 11:42 | 41.23407 | -8.67351 | 240 ft | 0 kts | 89° |
| 2026-04-17 11:42 | 41.23408 | -8.67344 | 241 ft | 1 kts | 83° |
| 2026-04-17 11:42 | 41.23411 | -8.67329 | 242 ft | 2 kts | 68° |
| 2026-04-17 11:43 | 41.23420 | -8.67309 | 243 ft | 4 kts | 60° |
| 2026-04-17 11:43 | 41.23429 | -8.67290 | 244 ft | 0 kts | 59° |
| 2026-04-17 11:43 | 41.23430 | -8.67286 | 244 ft | 1 kts | 59° |
| 2026-04-17 11:43 | 41.23436 | -8.67273 | 245 ft | 2 kts | 59° |
| 2026-04-17 11:44 | 41.23439 | -8.67267 | 245 ft | 0 kts | 59° |